Time;durP1;ratioP1;P1;durP2;ratioP2;P2;SDS_P1;SDS_P2;PMS_P1;PMS_P2;Temp;Humidity;BMP_temperature;BMP_pressure;BME280_temperature;BME280_humidity;BME280_pressure;Samples;Min_cycle;Max_cycle;Signal;HPM_P1;HPM_P2
2021/06/12 00:00:07;;;;;;;2.47;2.28;;;23.00;59.00;;;;;;4375391;32;20517;-36
2021/06/12 00:02:33;;;;;;;3.35;2.90;;;23.20;58.60;;;;;;4356419;32;20501;-35
2021/06/12 00:05:00;;;;;;;3.40;3.12;;;23.20;58.00;;;;;;4356708;32;20071;-35
2021/06/12 00:07:26;;;;;;;11.95;3.70;;;23.20;57.90;;;;;;4356982;32;20081;-37
2021/06/12 00:09:52;;;;;;;3.40;3.20;;;23.10;58.00;;;;;;4326686;33;20498;-37
2021/06/12 00:12:19;;;;;;;4.20;3.30;;;23.10;58.40;;;;;;4312432;33;20169;-37
2021/06/12 00:14:45;;;;;;;3.25;2.92;;;23.10;58.50;;;;;;4312742;33;20090;-37
2021/06/12 00:17:12;;;;;;;4.60;3.12;;;23.10;58.70;;;;;;4312326;33;20182;-37
2021/06/12 00:19:38;;;;;;;4.25;3.85;;;23.00;58.50;;;;;;4312292;33;20491;-37
2021/06/12 00:22:04;;;;;;;3.55;3.35;;;23.00;58.50;;;;;;4312537;33;20067;-37
2021/06/12 00:24:31;;;;;;;4.50;4.00;;;23.00;58.50;;;;;;4312302;33;20067;-37
2021/06/12 00:26:57;;;;;;;3.53;3.22;;;23.00;58.70;;;;;;4300309;33;20519;-37
2021/06/12 00:29:23;;;;;;;4.53;3.42;;;23.00;58.80;;;;;;4300301;33;20067;-37
2021/06/12 00:31:50;;;;;;;4.60;3.80;;;22.90;58.80;;;;;;4312029;33;20582;-37
2021/06/12 00:34:16;;;;;;;5.05;4.55;;;22.90;59.50;;;;;;4312278;33;20099;-37
2021/06/12 00:36:43;;;;;;;4.25;3.85;;;22.90;59.00;;;;;;4299936;33;20552;-37
2021/06/12 00:39:09;;;;;;;4.10;3.80;;;22.90;59.10;;;;;;4304534;33;20597;-37
2021/06/12 00:41:35;;;;;;;3.92;3.60;;;22.90;59.00;;;;;;4352722;32;20175;-38
2021/06/12 00:44:02;;;;;;;3.97;3.58;;;22.90;59.00;;;;;;4371180;32;20565;-37
2021/06/12 00:46:28;;;;;;;4.53;4.12;;;22.90;59.10;;;;;;4371042;32;20093;-37
2021/06/12 00:48:55;;;;;;;5.57;3.90;;;22.90;59.30;;;;;;4373655;32;20066;-37
2021/06/12 00:51:22;;;;;;;6.05;4.70;;;22.80;59.40;;;;;;4388754;32;20104;-37
2021/06/12 00:53:48;;;;;;;6.00;3.85;;;22.80;60.00;;;;;;4374687;32;20435;-37
2021/06/12 00:56:17;;;;;;;4.90;4.28;;;22.70;59.50;;;;;;4388559;32;20081;-37
2021/06/12 00:58:45;;;;;;;5.60;5.07;;;22.70;59.70;;;;;;4388594;32;20104;-36
2021/06/12 01:01:16;;;;;;;4.60;4.20;;;22.70;59.70;;;;;;4362574;32;20065;-37
2021/06/12 01:03:45;;;;;;;5.22;4.65;;;22.80;59.90;;;;;;4375067;32;20109;-37
2021/06/12 01:06:13;;;;;;;4.55;4.15;;;22.80;59.90;;;;;;4375210;32;20126;-37
2021/06/12 01:08:41;;;;;;;4.75;4.35;;;22.80;59.90;;;;;;4388819;32;20061;-37
2021/06/12 01:11:09;;;;;;;4.95;4.55;;;22.80;59.80;;;;;;4370606;32;20165;-37
2021/06/12 01:14:08;;;;;;;8.48;4.22;;;22.90;59.70;;;;;;4358441;32;20672;-37
2021/06/12 01:16:51;;;;;;;4.90;4.40;;;22.90;59.70;;;;;;4358169;32;20122;-37
2021/06/12 01:19:37;;;;;;;7.00;4.80;;;22.90;59.70;;;;;;4346512;32;20208;-37
2021/06/12 01:22:32;;;;;;;7.43;4.47;;;22.90;59.60;;;;;;4370764;32;20069;-37
2021/06/12 01:25:28;;;;;;;4.62;4.22;;;23.10;59.70;;;;;;4358414;32;20556;-37
2021/06/12 01:28:27;;;;;;;7.00;4.45;;;23.10;59.30;;;;;;4370718;32;20139;-37
2021/06/12 01:30:54;;;;;;;5.37;3.85;;;23.10;59.10;;;;;;4358282;32;20151;-37
2021/06/12 01:33:21;;;;;;;6.57;4.40;;;23.10;59.10;;;;;;4345919;32;20150;-37
2021/06/12 01:35:51;;;;;;;10.13;5.53;;;23.10;59.30;;;;;;4358561;32;20113;-37
2021/06/12 01:38:28;;;;;;;8.45;6.93;;;23.20;59.50;;;;;;4358388;32;20528;-37
2021/06/12 01:40:57;;;;;;;8.90;7.45;;;23.20;59.50;;;;;;4358683;32;20539;-37
2021/06/12 01:43:24;;;;;;;12.27;7.40;;;23.20;59.50;;;;;;4374160;32;20473;-37
2021/06/12 01:45:51;;;;;;;8.85;7.57;;;23.20;60.30;;;;;;4361731;32;20085;-37
2021/06/12 01:48:17;;;;;;;8.93;7.22;;;23.30;59.80;;;;;;4373913;32;20518;-37
2021/06/12 01:50:44;;;;;;;9.10;6.68;;;23.30;59.70;;;;;;4374078;32;20175;-37
2021/06/12 01:53:11;;;;;;;8.38;7.30;;;23.30;59.50;;;;;;4373750;32;20061;-37
2021/06/12 01:55:38;;;;;;;9.73;8.38;;;23.30;59.40;;;;;;4374244;32;20093;-37
2021/06/12 01:58:10;;;;;;;13.50;8.23;;;23.40;59.40;;;;;;4373693;32;20130;-37
2021/06/12 02:00:37;;;;;;;11.82;8.05;;;23.40;59.20;;;;;;4387996;32;20074;-37
2021/06/12 02:03:03;;;;;;;12.23;8.73;;;23.50;59.30;;;;;;4374257;32;20073;-37
2021/06/12 02:05:30;;;;;;;9.27;8.35;;;23.60;58.90;;;;;;4355111;32;20078;-37
2021/06/12 02:07:56;;;;;;;9.15;8.15;;;23.60;58.80;;;;;;4355359;32;20085;-37
2021/06/12 02:10:28;;;;;;;11.23;7.62;;;23.70;58.60;;;;;;4343304;32;20067;-37
2021/06/12 02:12:54;;;;;;;11.38;7.55;;;23.70;58.20;;;;;;4355586;32;20062;-38
2021/06/12 02:15:22;;;;;;;8.82;7.93;;;23.80;58.10;;;;;;4343185;32;20074;-37
2021/06/12 02:17:49;;;;;;;15.70;10.02;;;23.80;57.90;;;;;;4356050;32;20079;-37
2021/06/12 02:20:16;;;;;;;8.90;8.00;;;23.80;57.90;;;;;;4356869;32;20552;-38
2021/06/12 02:22:50;;;;;;;10.80;8.68;;;23.80;57.80;;;;;;4357019;32;20483;-38
2021/06/12 02:25:17;;;;;;;;;;;23.90;57.60;;;;;;4357521;32;20163;-38
2021/06/12 02:27:56;;;;;;;9.90;7.75;;;23.90;57.50;;;;;;4359076;32;20089;-37
2021/06/12 02:30:28;;;;;;;9.77;8.88;;;24.00;57.30;;;;;;4358541;32;20066;-36
2021/06/12 02:33:01;;;;;;;10.43;7.60;;;24.00;57.20;;;;;;4358330;32;20067;-37
2021/06/12 02:35:28;;;;;;;8.43;7.47;;;23.90;57.10;;;;;;4360520;32;20066;-37
2021/06/12 02:37:54;;;;;;;12.48;9.00;;;23.90;57.00;;;;;;4377149;32;20065;-37
2021/06/12 02:40:20;;;;;;;12.25;8.55;;;23.90;57.20;;;;;;4376968;32;20062;-36
2021/06/12 02:42:47;;;;;;;9.60;8.18;;;23.80;57.10;;;;;;4390958;32;20079;-37
2021/06/12 02:45:14;;;;;;;9.45;7.25;;;23.70;57.10;;;;;;4376156;32;20153;-37
2021/06/12 02:48:02;;;;;;;11.70;8.30;;;23.70;57.50;;;;;;4376697;32;20077;-38
2021/06/12 02:50:34;;;;;;;11.43;9.43;;;23.70;57.70;;;;;;4376763;32;20064;-37
2021/06/12 02:53:04;;;;;;;10.07;8.65;;;23.80;57.70;;;;;;4376554;32;20094;-37
2021/06/12 02:55:31;;;;;;;10.38;8.27;;;23.80;57.70;;;;;;4390487;32;20058;-37
2021/06/12 02:57:57;;;;;;;9.63;7.18;;;23.80;58.20;;;;;;4364297;32;20073;-37
2021/06/12 03:00:24;;;;;;;8.88;7.45;;;23.80;57.50;;;;;;4376727;32;20047;-37
2021/06/12 03:02:50;;;;;;;8.93;7.97;;;23.80;57.60;;;;;;4376415;32;20084;-37
2021/06/12 03:05:24;;;;;;;11.73;6.53;;;23.90;57.50;;;;;;4364175;32;20085;-37
2021/06/12 03:07:52;;;;;;;9.27;7.53;;;24.00;57.20;;;;;;4376498;32;20069;-38
2021/06/12 03:10:20;;;;;;;9.07;6.93;;;24.10;57.00;;;;;;4376401;32;20061;-37
2021/06/12 03:12:47;;;;;;;13.62;8.13;;;24.10;56.90;;;;;;4376475;32;20116;-37
2021/06/12 03:15:15;;;;;;;11.98;9.43;;;24.20;56.70;;;;;;4376348;32;20674;-38
2021/06/12 03:17:46;;;;;;;22.05;14.02;;;24.20;56.50;;;;;;4376706;32;20066;-38
2021/06/12 03:20:17;;;;;;;32.28;19.23;;;24.20;56.50;;;;;;4376324;32;20744;-38
2021/06/12 03:22:45;;;;;;;31.25;18.80;;;24.30;56.60;;;;;;4376168;32;20066;-38
2021/06/12 03:25:19;;;;;;;28.95;14.45;;;24.40;56.80;;;;;;4375950;32;20096;-38
2021/06/12 03:27:46;;;;;;;30.50;16.73;;;24.50;56.50;;;;;;4376442;32;20066;-38
2021/06/12 03:30:13;;;;;;;40.22;21.37;;;24.60;56.20;;;;;;4375738;32;20057;-38
2021/06/12 03:32:40;;;;;;;30.62;18.42;;;24.70;55.80;;;;;;4389960;32;20153;-38
2021/06/12 03:35:08;;;;;;;53.87;25.48;;;24.80;55.90;;;;;;4344466;32;20560;-38
2021/06/12 03:37:36;;;;;;;39.78;18.60;;;25.00;55.90;;;;;;4344823;32;20078;-38
2021/06/12 03:40:04;;;;;;;37.08;18.55;;;25.30;55.60;;;;;;4345071;32;20498;-37
2021/06/12 03:42:30;;;;;;;44.70;22.25;;;25.50;54.60;;;;;;4345007;32;20077;-38
2021/06/12 03:44:58;;;;;;;42.67;20.55;;;25.70;54.00;;;;;;4332546;32;20078;-38
2021/06/12 03:47:25;;;;;;;54.83;29.45;;;25.80;53.60;;;;;;4358278;32;20130;-37
2021/06/12 03:49:51;;;;;;;55.50;31.23;;;26.00;53.00;;;;;;4359835;32;20174;-38
2021/06/12 03:52:24;;;;;;;46.47;25.50;;;26.20;52.80;;;;;;4359789;32;20473;-38
2021/06/12 03:54:51;;;;;;;48.63;26.48;;;26.60;53.00;;;;;;4359366;32;20099;-38
2021/06/12 03:57:19;;;;;;;37.53;20.37;;;27.00;51.80;;;;;;4359877;32;20058;-38
2021/06/12 03:59:45;;;;;;;26.15;14.40;;;27.40;50.80;;;;;;4359268;32;20137;-38
2021/06/12 04:02:13;;;;;;;23.25;13.48;;;27.70;48.80;;;;;;4371641;32;20156;-38
2021/06/12 04:04:39;;;;;;;20.37;12.00;;;27.80;48.80;;;;;;4356464;32;20109;-38
2021/06/12 04:07:06;;;;;;;23.42;12.68;;;27.90;47.80;;;;;;4382456;32;20058;-38
2021/06/12 04:09:32;;;;;;;24.20;12.63;;;28.00;47.70;;;;;;4373003;32;20062;-37
2021/06/12 04:11:59;;;;;;;22.15;13.50;;;28.00;47.40;;;;;;4374184;32;20069;-38
2021/06/12 04:14:25;;;;;;;23.10;13.05;;;28.10;47.30;;;;;;4372551;32;20520;-36
2021/06/12 04:16:52;;;;;;;21.85;11.85;;;28.30;46.80;;;;;;4372708;32;20057;-37
2021/06/12 04:19:18;;;;;;;26.50;14.07;;;28.40;46.20;;;;;;4374367;32;20061;-37
2021/06/12 04:21:45;;;;;;;20.55;9.02;;;28.50;46.10;;;;;;4374392;32;20482;-37
2021/06/12 04:24:12;;;;;;;17.10;9.68;;;28.60;45.80;;;;;;4372903;32;20066;-37
2021/06/12 04:26:38;;;;;;;19.17;10.43;;;28.60;45.20;;;;;;4372392;32;20073;-37
2021/06/12 04:29:04;;;;;;;14.93;9.13;;;28.70;44.80;;;;;;4373861;32;20443;-37
2021/06/12 04:31:31;;;;;;;14.85;7.97;;;28.70;44.60;;;;;;4373855;32;20067;-38
2021/06/12 04:33:57;;;;;;;16.52;10.43;;;28.90;45.20;;;;;;4374163;32;20054;-38
2021/06/12 04:36:24;;;;;;;15.35;9.23;;;29.00;44.10;;;;;;4374290;32;20061;-38
2021/06/12 04:38:50;;;;;;;11.55;8.02;;;29.20;43.90;;;;;;4373436;32;20469;-37
2021/06/12 04:41:17;;;;;;;16.27;8.63;;;29.30;44.40;;;;;;4373931;32;20109;-38
2021/06/12 04:43:43;;;;;;;11.77;7.32;;;29.40;44.40;;;;;;4386407;32;20160;-38
2021/06/12 04:46:10;;;;;;;9.00;6.72;;;29.60;43.70;;;;;;4373563;32;20081;-37
2021/06/12 04:48:36;;;;;;;8.95;7.28;;;29.70;43.60;;;;;;4378150;32;20058;-37
2021/06/12 04:51:03;;;;;;;8.65;7.75;;;29.90;44.40;;;;;;4358667;32;20147;-37
2021/06/12 04:53:30;;;;;;;10.70;6.93;;;29.90;44.40;;;;;;4358494;32;20158;-37
2021/06/12 04:55:58;;;;;;;20.45;7.75;;;29.80;43.60;;;;;;4371629;32;20070;-38
2021/06/12 04:58:25;;;;;;;9.30;6.85;;;29.80;43.40;;;;;;4358828;32;20074;-38
2021/06/12 05:00:53;;;;;;;10.18;5.47;;;29.70;44.30;;;;;;4358505;32;20671;-37
2021/06/12 05:03:20;;;;;;;8.73;6.47;;;29.60;43.50;;;;;;4371002;32;20502;-37
2021/06/12 05:05:48;;;;;;;8.90;4.43;;;29.50;42.40;;;;;;4385382;32;20096;-38
2021/06/12 05:08:15;;;;;;;8.75;5.07;;;29.40;42.10;;;;;;4340972;33;20162;-37
2021/06/12 05:10:42;;;;;;;5.87;4.93;;;29.40;42.60;;;;;;4341343;33;20109;-36
2021/06/12 05:13:08;;;;;;;4.60;4.20;;;29.60;42.70;;;;;;4341044;33;20083;-38
2021/06/12 05:15:35;;;;;;;7.53;4.35;;;30.00;42.80;;;;;;4328911;33;20059;-37
2021/06/12 05:18:05;;;;;;;15.85;3.58;;;30.60;42.30;;;;;;4338327;33;20106;-35
2021/06/12 05:20:35;;;;;;;4.93;2.60;;;31.20;41.10;;;;;;4326310;33;20068;-38
2021/06/12 05:23:04;;;;;;;3.67;3.12;;;31.30;38.20;;;;;;4326224;33;20094;-37
2021/06/12 05:25:35;;;;;;;6.20;2.87;;;31.30;38.40;;;;;;4326002;33;20067;-36
2021/06/12 05:28:01;;;;;;;8.23;2.95;;;31.40;38.80;;;;;;4325889;33;20515;-37
2021/06/12 05:30:28;;;;;;;6.10;2.85;;;31.50;38.40;;;;;;4325997;33;20075;-37
2021/06/12 05:32:54;;;;;;;3.35;2.87;;;31.50;37.90;;;;;;4313882;33;20056;-37
2021/06/12 05:35:21;;;;;;;5.93;2.75;;;31.50;37.60;;;;;;4313796;33;20144;-38
2021/06/12 05:37:48;;;;;;;2.58;2.20;;;31.50;37.70;;;;;;4325849;33;20573;-38
2021/06/12 05:40:14;;;;;;;3.97;2.53;;;31.60;38.00;;;;;;4354943;32;20154;-38
2021/06/12 05:42:41;;;;;;;4.30;3.00;;;31.70;38.10;;;;;;4357737;32;20062;-38
2021/06/12 05:45:09;;;;;;;4.72;4.03;;;32.00;38.20;;;;;;4357686;32;20058;-38
2021/06/12 05:47:36;;;;;;;2.95;2.72;;;32.40;38.50;;;;;;4359785;32;20121;-38
2021/06/12 05:50:04;;;;;;;14.00;5.95;;;32.90;37.40;;;;;;4372801;32;20066;-38
2021/06/12 05:52:31;;;;;;;4.32;3.65;;;33.30;38.30;;;;;;4372889;32;20069;-39
2021/06/12 05:54:57;;;;;;;4.18;2.90;;;33.60;36.70;;;;;;4373565;32;20059;-38
2021/06/12 05:57:24;;;;;;;6.45;3.83;;;33.80;36.10;;;;;;4372475;32;20547;-39
2021/06/12 05:59:50;;;;;;;14.00;4.37;;;33.90;35.30;;;;;;4372866;32;20082;-39
2021/06/12 06:02:16;;;;;;;6.53;4.12;;;34.10;35.60;;;;;;4372498;32;20500;-39
2021/06/12 06:04:43;;;;;;;8.25;5.12;;;34.40;35.30;;;;;;4388319;32;20089;-39
2021/06/12 06:07:09;;;;;;;9.65;5.10;;;34.70;34.60;;;;;;4403171;32;20069;-39
2021/06/12 06:09:36;;;;;;;7.93;5.43;;;35.10;34.60;;;;;;4402667;32;20049;-40
2021/06/12 06:12:03;;;;;;;9.25;6.18;;;35.20;34.20;;;;;;4400177;32;20066;-39
2021/06/12 06:14:29;;;;;;;11.30;7.12;;;35.20;34.80;;;;;;4400523;32;20082;-39
2021/06/12 06:16:57;;;;;;;14.18;7.60;;;35.20;34.80;;;;;;4400386;32;20160;-39
2021/06/12 06:19:23;;;;;;;12.23;8.38;;;35.10;34.50;;;;;;4400511;32;20092;-38
2021/06/12 06:21:50;;;;;;;8.60;7.55;;;35.10;34.50;;;;;;4400207;32;20079;-39
2021/06/12 06:24:16;;;;;;;7.15;6.53;;;35.10;35.60;;;;;;4400086;32;20173;-40
2021/06/12 06:26:43;;;;;;;9.80;6.28;;;35.10;35.90;;;;;;4400227;32;20071;-40
2021/06/12 06:29:09;;;;;;;11.18;8.10;;;35.20;35.90;;;;;;4387871;32;20544;-40
2021/06/12 06:31:37;;;;;;;8.43;7.32;;;35.30;35.70;;;;;;4387631;32;20144;-39
2021/06/12 06:34:04;;;;;;;10.15;7.32;;;35.10;35.70;;;;;;4387858;32;20080;-38
2021/06/12 06:36:30;;;;;;;8.65;7.15;;;34.90;36.10;;;;;;4400516;32;20215;-40
2021/06/12 06:38:57;;;;;;;9.60;7.70;;;34.80;36.20;;;;;;4399989;32;20161;-38
2021/06/12 06:41:23;;;;;;;10.02;8.18;;;34.90;36.30;;;;;;4400647;32;20093;-41
2021/06/12 06:43:50;;;;;;;12.68;10.68;;;34.90;36.10;;;;;;4400077;32;20117;-39
2021/06/12 06:46:16;;;;;;;12.95;11.00;;;34.90;36.10;;;;;;4400168;32;20065;-39
2021/06/12 06:48:43;;;;;;;16.90;13.00;;;34.80;36.40;;;;;;4391300;32;20513;-39
2021/06/12 06:51:09;;;;;;;18.08;13.50;;;34.80;36.60;;;;;;4387571;32;20202;-39
2021/06/12 06:53:36;;;;;;;17.80;13.52;;;34.70;36.40;;;;;;4387496;32;20132;-39
2021/06/12 06:56:04;;;;;;;17.87;12.23;;;34.50;36.80;;;;;;4387183;32;20068;-40
2021/06/12 06:58:31;;;;;;;15.43;11.57;;;34.30;36.90;;;;;;4387586;32;20084;-40
2021/06/12 07:00:57;;;;;;;16.75;12.37;;;34.20;37.10;;;;;;4387037;32;20055;-39
2021/06/12 07:03:24;;;;;;;14.13;10.48;;;34.10;37.30;;;;;;4387091;32;20074;-39
2021/06/12 07:05:52;;;;;;;15.32;12.37;;;34.00;38.10;;;;;;4386699;32;20136;-40
2021/06/12 07:08:18;;;;;;;12.27;10.98;;;34.00;38.30;;;;;;4387388;32;20555;-40
2021/06/12 07:10:45;;;;;;;14.32;10.73;;;34.00;37.90;;;;;;4387344;32;20074;-40
2021/06/12 07:13:12;;;;;;;18.62;12.60;;;34.00;37.70;;;;;;4388156;32;20082;-41
2021/06/12 07:15:38;;;;;;;14.30;12.55;;;34.20;37.90;;;;;;4389639;32;20534;-40
2021/06/12 07:18:05;;;;;;;15.52;11.77;;;34.20;37.50;;;;;;4390193;32;20107;-40
2021/06/12 07:20:31;;;;;;;17.75;12.73;;;34.20;37.60;;;;;;4391246;32;20077;-41
2021/06/12 07:22:58;;;;;;;16.60;13.23;;;34.20;37.80;;;;;;4389899;32;20185;-41
2021/06/12 07:25:25;;;;;;;18.23;12.18;;;34.20;37.50;;;;;;4389859;32;20062;-40
2021/06/12 07:27:51;;;;;;;17.08;12.88;;;34.20;37.50;;;;;;4390098;32;20068;-40
2021/06/12 07:30:18;;;;;;;21.65;13.75;;;34.10;37.60;;;;;;4389805;32;20274;-41
2021/06/12 07:32:45;;;;;;;18.73;13.52;;;34.00;37.70;;;;;;4375195;32;20129;-41
2021/06/12 07:35:12;;;;;;;24.50;15.77;;;33.80;37.70;;;;;;4389545;32;20521;-41
2021/06/12 07:37:38;;;;;;;19.25;13.70;;;33.60;37.80;;;;;;4375490;32;20068;-40
2021/06/12 07:40:06;;;;;;;20.12;15.18;;;33.20;38.10;;;;;;4390184;32;20092;-41
2021/06/12 07:42:32;;;;;;;16.95;14.45;;;32.80;38.80;;;;;;4389647;32;20077;-40
2021/06/12 07:44:59;;;;;;;16.33;11.18;;;32.50;39.30;;;;;;4389611;32;20064;-42
2021/06/12 07:47:25;;;;;;;13.65;10.30;;;32.10;39.90;;;;;;4376382;32;20065;-40
2021/06/12 07:49:52;;;;;;;12.60;10.90;;;32.00;40.60;;;;;;4404124;32;20430;-40
2021/06/12 07:52:18;;;;;;;12.50;11.18;;;31.80;40.60;;;;;;4401583;32;20089;-40
2021/06/12 07:54:45;;;;;;;22.25;11.88;;;31.70;40.80;;;;;;4402041;32;20061;-40
2021/06/12 07:57:12;;;;;;;14.35;10.73;;;31.60;40.90;;;;;;4401769;32;20610;-41
2021/06/12 07:59:39;;;;;;;21.35;11.38;;;31.40;41.30;;;;;;4402514;32;20210;-38
2021/06/12 08:02:05;;;;;;;15.40;11.77;;;31.30;41.80;;;;;;4402457;32;20077;-39
2021/06/12 08:04:32;;;;;;;13.90;11.85;;;31.20;41.60;;;;;;4401764;32;20065;-39
2021/06/12 08:06:58;;;;;;;18.33;13.80;;;31.00;41.60;;;;;;4401906;32;20736;-38
2021/06/12 08:09:25;;;;;;;15.15;13.55;;;30.90;41.70;;;;;;4401718;32;20608;-39
2021/06/12 08:11:52;;;;;;;14.55;12.70;;;30.80;41.90;;;;;;4401735;32;20069;-38
2021/06/12 08:14:18;;;;;;;14.87;11.23;;;30.80;42.40;;;;;;4389022;32;20073;-39
2021/06/12 08:16:45;;;;;;;16.35;11.45;;;30.80;42.60;;;;;;4401597;32;20145;-39
2021/06/12 08:19:12;;;;;;;18.42;11.07;;;30.90;42.50;;;;;;4401399;32;20525;-40
2021/06/12 08:21:38;;;;;;;16.23;10.18;;;31.10;42.50;;;;;;4389091;32;20600;-40
2021/06/12 08:24:05;;;;;;;17.02;14.30;;;31.30;42.40;;;;;;4401576;32;20549;-41
2021/06/12 08:26:31;;;;;;;15.63;13.35;;;31.40;42.20;;;;;;4371269;32;20162;-44
2021/06/12 08:28:58;;;;;;;13.88;12.48;;;31.40;41.80;;;;;;4371544;32;20082;-40
2021/06/12 08:31:24;;;;;;;17.10;14.38;;;31.50;42.00;;;;;;4371578;32;20117;-39
2021/06/12 08:33:51;;;;;;;17.42;12.75;;;31.50;42.10;;;;;;4371323;32;20076;-40
2021/06/12 08:36:17;;;;;;;14.55;12.43;;;31.50;41.90;;;;;;4371468;32;20159;-40
2021/06/12 08:38:44;;;;;;;19.90;14.85;;;31.60;41.70;;;;;;4371435;32;20194;-40
2021/06/12 08:41:11;;;;;;;19.17;14.87;;;31.70;41.40;;;;;;4371135;32;20054;-38
2021/06/12 08:43:37;;;;;;;18.58;15.38;;;31.60;41.50;;;;;;4371689;32;20121;-40
2021/06/12 08:46:04;;;;;;;20.10;16.75;;;31.60;41.90;;;;;;4371878;32;20093;-41
2021/06/12 08:48:30;;;;;;;26.10;16.90;;;31.50;42.10;;;;;;4363647;32;20902;-40
2021/06/12 08:50:57;;;;;;;24.60;16.45;;;31.50;42.30;;;;;;4356379;32;20102;-42
2021/06/12 08:53:24;;;;;;;22.62;18.05;;;31.40;42.10;;;;;;4356128;32;20604;-40
2021/06/12 08:55:51;;;;;;;24.15;17.35;;;31.40;42.00;;;;;;4356651;32;20231;-42
2021/06/12 08:58:18;;;;;;;20.98;17.87;;;31.30;42.40;;;;;;4382584;32;20577;-40
2021/06/12 09:00:44;;;;;;;22.52;16.48;;;31.20;42.40;;;;;;4388612;32;20062;-40
2021/06/12 09:03:24;;;;;;;18.90;16.90;;;31.10;42.90;;;;;;4374510;32;20081;-41
2021/06/12 09:06:00;;;;;;;17.27;15.52;;;31.20;43.10;;;;;;4388187;32;20480;-40
2021/06/12 09:08:31;;;;;;;18.77;15.55;;;31.30;43.20;;;;;;4388238;32;20050;-40
2021/06/12 09:11:11;;;;;;;18.85;16.98;;;31.50;42.60;;;;;;4388397;32;20082;-40
2021/06/12 09:13:53;;;;;;;19.58;16.20;;;31.50;42.30;;;;;;4388367;32;20069;-41
2021/06/12 09:16:34;;;;;;;17.95;16.20;;;31.60;42.40;;;;;;4388560;32;20073;-40
2021/06/12 09:19:05;;;;;;;17.77;15.27;;;31.80;42.10;;;;;;4388248;32;20583;-39
2021/06/12 09:21:40;;;;;;;18.75;16.75;;;32.00;41.90;;;;;;4387931;32;20153;-38
2021/06/12 09:24:34;;;;;;;19.40;16.62;;;32.20;41.50;;;;;;4373807;32;20065;-40
2021/06/12 09:27:12;;;;;;;22.87;15.25;;;32.30;41.20;;;;;;4387988;32;20089;-39
2021/06/12 09:29:44;;;;;;;21.67;19.48;;;32.60;40.80;;;;;;4375512;32;20091;-40
2021/06/12 09:32:16;;;;;;;20.83;17.25;;;32.70;40.90;;;;;;4388714;32;20058;-40
2021/06/12 09:34:44;;;;;;;21.48;15.50;;;32.80;40.70;;;;;;4388379;32;20122;-40
2021/06/12 09:37:19;;;;;;;21.52;15.00;;;33.00;41.30;;;;;;4387688;32;20057;-38
2021/06/12 09:40:05;;;;;;;13.52;12.05;;;33.10;40.40;;;;;;4374626;32;20561;-39
2021/06/12 09:42:45;;;;;;;17.08;14.90;;;33.40;40.30;;;;;;4387971;32;20060;-38
2021/06/12 09:45:17;;;;;;;18.17;16.27;;;33.80;39.60;;;;;;4370180;32;20075;-40
2021/06/12 09:47:44;;;;;;;18.20;16.27;;;34.00;38.40;;;;;;4370573;32;20057;-41
2021/06/12 09:50:12;;;;;;;19.40;15.93;;;34.00;38.60;;;;;;4370593;32;20082;-40
2021/06/12 09:52:44;;;;;;;19.02;15.52;;;33.90;38.90;;;;;;4357574;32;20183;-39
2021/06/12 09:55:27;;;;;;;16.05;14.43;;;33.90;38.80;;;;;;4370243;32;20087;-38
2021/06/12 09:57:56;;;;;;;18.95;16.95;;;33.80;39.20;;;;;;4370345;32;20059;-41
2021/06/12 10:00:39;;;;;;;19.05;16.98;;;33.80;38.80;;;;;;4370455;32;20059;-39
2021/06/12 10:03:20;;;;;;;18.95;16.10;;;33.80;38.80;;;;;;4369897;32;20560;-38
2021/06/12 10:05:47;;;;;;;20.15;16.30;;;33.80;39.00;;;;;;4357748;32;20074;-38
2021/06/12 10:08:18;;;;;;;17.27;15.15;;;33.70;38.60;;;;;;4370542;32;20057;-40
2021/06/12 10:10:49;;;;;;;14.52;12.07;;;33.60;38.50;;;;;;4358550;32;20069;-41
2021/06/12 10:13:17;;;;;;;17.55;14.90;;;33.50;38.60;;;;;;4358644;32;20055;-39
2021/06/12 10:15:46;;;;;;;21.73;15.15;;;33.70;38.40;;;;;;4346227;32;20062;-40
2021/06/12 10:18:13;;;;;;;14.65;12.48;;;33.70;38.20;;;;;;4357822;32;20066;-39
2021/06/12 10:20:39;;;;;;;16.00;14.13;;;33.70;38.40;;;;;;4357302;32;20082;-40
2021/06/12 10:23:06;;;;;;;14.55;13.15;;;33.70;38.10;;;;;;4345804;32;20988;-40
2021/06/12 10:25:32;;;;;;;16.58;14.80;;;33.60;37.90;;;;;;4358750;32;20154;-40
2021/06/12 10:27:59;;;;;;;17.48;13.00;;;33.50;38.40;;;;;;4372800;32;20485;-39
2021/06/12 10:30:25;;;;;;;17.35;14.00;;;33.50;38.70;;;;;;4358886;32;20098;-40
2021/06/12 10:32:53;;;;;;;12.93;10.25;;;33.40;38.70;;;;;;4358956;32;20073;-42
2021/06/12 10:35:25;;;;;;;16.48;12.55;;;33.50;39.10;;;;;;4371262;32;20061;-40
2021/06/12 10:38:16;;;;;;;14.23;11.23;;;33.50;38.30;;;;;;4372543;32;20065;-40
2021/06/12 10:40:50;;;;;;;13.27;11.93;;;33.70;38.30;;;;;;4372758;32;20070;-39
2021/06/12 10:43:18;;;;;;;17.02;11.27;;;33.90;38.10;;;;;;4371157;32;20568;-40
2021/06/12 10:46:05;;;;;;;15.07;13.18;;;33.80;37.60;;;;;;4372620;32;20074;-40
2021/06/12 10:48:52;;;;;;;15.88;10.15;;;33.50;38.10;;;;;;4376950;32;20066;-39
2021/06/12 10:51:25;;;;;;;13.38;10.60;;;33.20;38.30;;;;;;4390512;32;20077;-38
2021/06/12 10:54:10;;;;;;;13.13;11.80;;;32.80;38.80;;;;;;4390495;32;20062;-40
2021/06/12 10:56:41;;;;;;;12.57;11.30;;;32.70;39.10;;;;;;4390244;32;20054;-40
2021/06/12 10:59:09;;;;;;;13.73;11.43;;;32.60;39.20;;;;;;4390171;32;20517;-39
2021/06/12 11:01:36;;;;;;;16.55;11.98;;;32.60;39.30;;;;;;4403005;32;20069;-39
2021/06/12 11:06:56;;;;;;;16.42;12.73;;;32.50;39.60;;;;;;4403435;32;20148;-39
2021/06/12 11:09:38;;;;;;;15.88;11.25;;;32.30;39.80;;;;;;4402876;32;20142;-39
2021/06/12 11:12:14;;;;;;;17.98;11.93;;;32.20;40.00;;;;;;4402680;32;20054;-39
2021/06/12 11:14:40;;;;;;;13.45;11.23;;;32.00;39.80;;;;;;4402456;32;20567;-40
2021/06/12 11:19:36;;;;;;;15.65;11.10;;;31.60;40.30;;;;;;4402850;32;20073;-39
2021/06/12 11:22:39;;;;;;;13.32;11.38;;;31.60;39.90;;;;;;4390310;32;20076;-40
2021/06/12 11:25:08;;;;;;;15.10;13.02;;;31.70;39.80;;;;;;4402709;32;20065;-39
2021/06/12 11:27:39;;;;;;;13.90;11.85;;;31.80;39.80;;;;;;4402178;32;20058;-39
2021/06/12 11:30:26;;;;;;;12.77;10.65;;;31.80;39.10;;;;;;4396580;32;20058;-39
2021/06/12 11:32:59;;;;;;;11.90;10.20;;;32.20;39.50;;;;;;4390083;32;20062;-38
2021/06/12 11:35:58;;;;;;;11.45;9.75;;;32.60;37.30;;;;;;4389713;32;20154;-38
2021/06/12 11:38:39;;;;;;;13.15;9.68;;;32.90;37.10;;;;;;4389726;32;20529;-40
2021/06/12 11:41:07;;;;;;;11.12;9.30;;;33.20;37.40;;;;;;4388479;32;20062;-40
2021/06/12 11:43:40;;;;;;;14.73;10.05;;;33.30;36.20;;;;;;4388214;32;20062;-39
2021/06/12 11:46:19;;;;;;;15.65;10.73;;;33.50;36.10;;;;;;4389695;32;20135;-39
2021/06/12 11:48:50;;;;;;;14.20;10.07;;;33.60;34.00;;;;;;4380585;32;20069;-39
2021/06/12 11:51:31;;;;;;;16.87;11.35;;;33.60;33.90;;;;;;4373483;32;20177;-39
2021/06/12 11:54:10;;;;;;;16.98;13.10;;;33.50;34.30;;;;;;4372928;32;20598;-40
2021/06/12 11:56:54;;;;;;;10.45;9.48;;;33.50;34.30;;;;;;4374370;32;20518;-40
2021/06/12 11:59:25;;;;;;;10.45;9.20;;;33.50;35.00;;;;;;4374087;32;20140;-39
2021/06/12 12:01:58;;;;;;;8.85;8.05;;;33.50;36.60;;;;;;4374659;32;20081;-39
2021/06/12 12:04:33;;;;;;;11.07;9.23;;;33.40;36.20;;;;;;4372297;32;20715;-38
2021/06/12 12:07:00;;;;;;;14.07;9.57;;;33.50;36.70;;;;;;4373899;32;20056;-39
2021/06/12 12:09:35;;;;;;;11.30;9.27;;;33.50;36.60;;;;;;4374158;32;20578;-39
2021/06/12 12:12:08;;;;;;;13.95;9.25;;;33.40;36.90;;;;;;4374052;32;20113;-40
2021/06/12 12:14:40;;;;;;;10.43;9.13;;;33.20;37.10;;;;;;4374470;32;20062;-40
2021/06/12 12:17:28;;;;;;;13.90;9.52;;;33.10;36.90;;;;;;4374624;32;20066;-39
2021/06/12 12:20:12;;;;;;;11.60;10.00;;;33.00;37.40;;;;;;4373743;32;20159;-39
2021/06/12 12:22:40;;;;;;;10.35;8.95;;;32.90;37.70;;;;;;4373984;32;20077;-39
2021/06/12 12:25:09;;;;;;;14.35;9.52;;;32.80;38.30;;;;;;4374022;32;20062;-38
2021/06/12 12:27:36;;;;;;;16.85;9.93;;;32.80;38.90;;;;;;4374075;32;20552;-39
2021/06/12 12:30:04;;;;;;;10.27;9.25;;;32.70;39.10;;;;;;4373580;32;20059;-39
2021/06/12 12:32:31;;;;;;;13.05;11.10;;;32.80;39.30;;;;;;4344179;32;20152;-39
2021/06/12 12:35:12;;;;;;;11.85;9.88;;;32.80;39.20;;;;;;4344168;32;20081;-39
2021/06/12 12:37:39;;;;;;;12.07;9.85;;;32.80;39.50;;;;;;4345185;32;20525;-39
2021/06/12 12:40:27;;;;;;;11.95;9.70;;;32.70;39.20;;;;;;4356408;32;20063;-39
2021/06/12 12:43:03;;;;;;;13.43;10.57;;;32.60;39.10;;;;;;4346443;32;20078;-39
2021/06/12 12:45:30;;;;;;;12.57;10.80;;;32.50;39.70;;;;;;4356681;32;20069;-39
2021/06/12 12:47:56;;;;;;;12.37;10.63;;;32.50;40.20;;;;;;4344243;32;20073;-39
2021/06/12 12:50:23;;;;;;;17.05;12.52;;;32.30;39.60;;;;;;4344346;32;20066;-39
2021/06/12 12:53:07;;;;;;;13.88;12.48;;;32.00;39.40;;;;;;4344241;32;20071;-39